Airfield :
LOGIN :

Register | Disclaimer

   EN    FR    IT 

 










Legend :    VFR   Marginal VFR   IFR   Intensive IFR   Very Intensive IFR
Visi :
Ceiling :
>= 8 km
>= 3000ft
5 to 8 km
1000 to 3000 ft
1500m to 5 km
500 to 1000 ft
800 to 1500m
200 to 500 ft
< 800m
< 200 ft
Symbols :   Thunderstorms  Fog  Heavy snow  Heavy precipitations  Wind > 20 kt
SIGMETs :     Misc.  Thunderstorms  Icing  Turbulence  Mountain Waves  Volcanic Ashes







- Airport Elevation : 23 ft
- IATA code : XFW


EDHI - Hamburg Finkenwerder

CURRENT METAR :
  • 270650Z 31010KT 280V360 9999 BKN022 15/11 Q1026

EXPIRED METARs :
  • 270620Z 32010KT 280V350 9999 BKN022 15/10 Q1026
  • 270550Z 31011KT 280V340 9999 BKN021 15/10 Q1026
  • 270520Z 31009KT 280V350 9999 BKN021 15/10 Q1026
  • 270450Z 31010KT 280V340 9999 BKN021 14/10 Q1025
  • 270420Z 30009KT 280V350 9999 BKN021 14/10 Q1025

TAF TAF EDHI
Valid from the 27 at 06:00 until the 27 at 15:00 UTC


270500Z 2706/2715 30012KT 9999 BKN020
TEMPO 2706/2715 30015G25KT
No reported NOTAMs for that airfield.



MET'MAP, your aeronautical weather chart ! - Copyright ORBIFLY December 2007 - Disclaimer

ORBIFLY MET'MAP TEAM :

Programming & Development : Alexandra Zaïnal
Concept & Development : Baudouin d'Aumeries
Co-Development & Prog : Marc-Olivier Méhu
Technical & hardware support : Manuel Goepfert

Contact : metmap@orbifly.com




SOURCES & CREDITS :

   NOAA